Time;durP1;ratioP1;P1;durP2;ratioP2;P2;SDS_P1;SDS_P2;PMS_P1;PMS_P2;Temp;Humidity;BMP_temperature;BMP_pressure;BME280_temperature;BME280_humidity;BME280_pressure;Samples;Min_cycle;Max_cycle;Signal;HPM_P1;HPM_P2
2023/08/16 00:06:09;;;;;;;1.40;1.30;;;16.80;99.90;;;;;;25326870;23;19998;-65
2023/08/16 00:16:10;;;;;;;1.48;1.20;;;17.00;99.90;;;;;;25324923;23;20033;-45
2023/08/16 00:26:15;;;;;;;1.55;0.90;;;17.20;99.90;;;;;;25324867;23;20026;-65
2023/08/16 00:36:17;;;;;;;0.93;0.70;;;17.10;99.90;;;;;;25299464;23;20013;-45
2023/08/16 00:46:19;;;;;;;0.90;0.80;;;17.00;99.90;;;;;;25324622;23;20006;-65
2023/08/16 00:56:21;;;;;;;0.77;0.77;;;16.90;99.90;;;;;;25299825;23;20326;-65
2023/08/16 01:06:24;;;;;;;1.15;0.90;;;17.00;99.90;;;;;;25324076;23;20093;-48
2023/08/16 01:16:28;;;;;;;1.83;0.80;;;16.90;99.90;;;;;;25323937;23;20476;-65
2023/08/16 01:26:35;;;;;;;1.65;0.95;;;16.90;99.90;;;;;;25323477;23;20013;-65
2023/08/16 01:36:37;;;;;;;1.25;1.00;;;16.90;99.90;;;;;;25359736;23;20791;-45
2023/08/16 01:46:41;;;;;;;1.40;1.10;;;16.70;99.90;;;;;;25329429;23;20013;-65
2023/08/16 01:56:43;;;;;;;1.33;1.00;;;16.40;99.90;;;;;;25330688;23;20013;-46
2023/08/16 02:06:45;;;;;;;1.60;1.20;;;16.40;99.90;;;;;;25328559;23;20002;-64
2023/08/16 02:16:47;;;;;;;1.25;1.00;;;16.10;99.90;;;;;;25330278;23;20006;-65
2023/08/16 02:26:50;;;;;;;3.00;1.25;;;15.90;99.90;;;;;;25327937;23;20010;-65
2023/08/16 02:36:51;;;;;;;1.00;0.73;;;16.10;99.90;;;;;;25328275;23;20017;-64
2023/08/16 02:46:53;;;;;;;0.82;0.80;;;16.10;99.90;;;;;;25301642;23;20064;-49
2023/08/16 02:56:55;;;;;;;1.75;0.90;;;15.90;99.90;;;;;;25327845;23;20061;-64
2023/08/16 03:06:57;;;;;;;1.20;0.93;;;15.80;99.90;;;;;;25329456;23;20002;-47
2023/08/16 03:17:00;;;;;;;0.82;0.80;;;15.60;99.90;;;;;;25301808;23;20006;-64
2023/08/16 03:27:04;;;;;;;1.83;1.20;;;15.50;99.90;;;;;;25326932;23;20090;-64
2023/08/16 03:37:07;;;;;;;1.45;1.35;;;15.40;99.90;;;;;;25300194;23;20014;-64
2023/08/16 03:47:11;;;;;;;1.90;1.60;;;15.20;99.90;;;;;;25325928;23;20010;-65
2023/08/16 03:57:14;;;;;;;4.80;3.58;;;15.20;99.90;;;;;;25325251;23;20005;-48
2023/08/16 04:07:15;;;;;;;4.30;3.15;;;14.90;99.90;;;;;;25325133;23;20064;-64
2023/08/16 04:17:17;;;;;;;2.78;2.53;;;15.00;99.90;;;;;;25324941;23;20521;-65
2023/08/16 04:27:19;;;;;;;2.58;2.25;;;15.10;99.90;;;;;;25323076;23;20314;-47
2023/08/16 04:37:21;;;;;;;3.38;3.08;;;15.10;99.90;;;;;;25323930;23;20017;-65
2023/08/16 04:47:23;;;;;;;4.07;3.00;;;15.10;99.90;;;;;;25322320;23;20013;-47
2023/08/16 04:57:26;;;;;;;3.38;2.85;;;15.10;99.90;;;;;;25323714;23;20002;-65
2023/08/16 05:07:29;;;;;;;5.15;3.50;;;15.10;99.90;;;;;;25322396;23;20362;-47
2023/08/16 05:17:32;;;;;;;4.88;4.00;;;15.10;99.90;;;;;;25322775;23;19998;-46
2023/08/16 05:27:34;;;;;;;5.78;5.18;;;15.10;99.90;;;;;;25299428;23;20014;-61
2023/08/16 05:37:35;;;;;;;8.15;7.35;;;15.30;99.90;;;;;;25320560;23;20014;-64
2023/08/16 05:47:37;;;;;;;10.68;9.55;;;15.50;99.90;;;;;;25322215;23;20307;-64
2023/08/16 05:57:39;;;;;;;10.68;9.60;;;15.90;99.90;;;;;;25320662;23;20033;-46
2023/08/16 06:07:41;;;;;;;11.73;10.52;;;16.40;99.90;;;;;;25321684;23;20133;-46
2023/08/16 06:17:43;;;;;;;10.35;9.10;;;17.30;99.90;;;;;;25321684;23;20017;-56
2023/08/16 06:27:46;;;;;;;8.23;7.43;;;18.30;99.90;;;;;;25329207;23;20037;-49
2023/08/16 06:37:48;;;;;;;6.30;5.70;;;19.50;99.90;;;;;;25328621;23;20053;-63
2023/08/16 06:47:49;;;;;;;4.22;3.88;;;20.80;99.90;;;;;;25329306;23;20033;-63
2023/08/16 06:57:51;;;;;;;4.50;4.10;;;22.00;99.90;;;;;;25327703;23;20005;-63
2023/08/16 07:07:53;;;;;;;3.00;2.80;;;23.50;99.90;;;;;;25328462;23;20009;-62
2023/08/16 07:17:55;;;;;;;2.85;2.22;;;24.70;99.90;;;;;;25326548;23;20370;-64
2023/08/16 07:28:00;;;;;;;3.38;3.10;;;23.90;99.90;;;;;;25300824;23;20080;-64
2023/08/16 07:38:03;;;;;;;3.22;2.92;;;23.30;99.90;;;;;;25325428;23;20018;-62
2023/08/16 07:48:05;;;;;;;3.67;3.33;;;23.80;99.90;;;;;;25325328;23;20017;-63
2023/08/16 07:58:07;;;;;;;4.38;4.05;;;25.10;99.90;;;;;;25325247;23;20073;-64
2023/08/16 08:08:11;;;;;;;4.55;3.80;;;24.80;99.90;;;;;;25324763;23;20025;-64
2023/08/16 08:18:13;;;;;;;4.45;4.05;;;24.40;99.90;;;;;;25324472;23;20082;-64
2023/08/16 08:28:16;;;;;;;4.88;4.40;;;24.80;99.90;;;;;;25323972;23;20429;-63
2023/08/16 08:38:18;;;;;;;4.15;3.85;;;25.20;99.90;;;;;;25324046;23;20434;-62
2023/08/16 08:48:22;;;;;;;4.60;4.20;;;26.10;99.90;;;;;;25323057;23;20084;-62
2023/08/16 08:58:27;;;;;;;4.80;4.40;;;26.60;99.90;;;;;;25321628;23;19998;-62
2023/08/16 09:08:29;;;;;;;5.90;4.72;;;26.80;99.60;;;;;;25321198;23;20029;-61
2023/08/16 09:18:31;;;;;;;4.45;4.00;;;26.90;99.20;;;;;;25322445;23;20002;-61
2023/08/16 09:28:33;;;;;;;4.68;4.28;;;26.90;99.30;;;;;;25322184;23;20500;-61
2023/08/16 09:38:41;;;;;;;5.72;5.10;;;;;;;;;;25322858;23;20014;-61
2023/08/16 09:48:43;;;;;;;5.20;4.70;;;27.80;99.90;;;;;;25361727;23;20009;-60
2023/08/16 09:58:46;;;;;;;4.65;4.25;;;;;;;;;;25324322;23;20006;-66
2023/08/16 10:08:49;;;;;;;5.15;4.72;;;28.10;99.90;;;;;;25324577;23;20006;-63
2023/08/16 10:18:53;;;;;;;5.20;4.72;;;28.40;98.30;;;;;;25324632;23;20002;-63
2023/08/16 10:29:00;;;;;;;4.90;4.50;;;28.30;98.80;;;;;;25318541;23;20006;-62
2023/08/16 10:39:03;;;;;;;4.43;3.95;;;28.10;98.70;;;;;;25349384;23;20009;-62
2023/08/16 10:49:06;;;;;;;4.60;4.20;;;28.10;98.60;;;;;;25327589;23;20018;-62
2023/08/16 10:59:08;;;;;;;5.68;5.18;;;28.20;98.30;;;;;;25326729;23;20002;-61
2023/08/16 11:09:10;;;;;;;5.22;4.30;;;28.60;96.40;;;;;;25321200;23;20002;-62
2023/08/16 11:19:14;;;;;;;6.30;4.90;;;28.80;96.70;;;;;;25317813;23;20523;-62
2023/08/16 11:29:20;;;;;;;4.85;4.32;;;28.70;97.70;;;;;;25320973;23;20496;-63
2023/08/16 11:39:23;;;;;;;5.93;4.88;;;28.70;96.90;;;;;;25317289;23;20009;-64
2023/08/16 11:49:26;;;;;;;5.20;4.68;;;28.30;98.10;;;;;;25317268;23;20057;-63
2023/08/16 11:59:29;;;;;;;5.30;4.80;;;27.80;97.60;;;;;;25324412;23;20061;-61
2023/08/16 12:09:40;;;;;;;5.43;5.00;;;27.60;98.30;;;;;;25324656;23;20014;-66
2023/08/16 12:19:42;;;;;;;7.45;5.53;;;27.10;97.90;;;;;;25365870;23;20006;-48
2023/08/16 12:29:44;;;;;;;5.50;5.07;;;27.50;98.60;;;;;;25323664;23;20037;-49
2023/08/16 12:39:48;;;;;;;5.78;5.15;;;28.30;98.00;;;;;;25322933;23;20013;-49
2023/08/16 12:49:50;;;;;;;5.80;5.30;;;27.20;96.70;;;;;;25324185;23;20042;-60
2023/08/16 12:59:53;;;;;;;5.40;4.85;;;27.20;98.30;;;;;;25322413;23;20064;-59
2023/08/16 13:09:56;;;;;;;6.70;5.97;;;28.20;95.90;;;;;;25316258;23;20487;-59
2023/08/16 13:19:58;;;;;;;6.22;5.63;;;28.80;95.90;;;;;;25316991;23;20010;-59
2023/08/16 13:30:00;;;;;;;5.72;5.22;;;29.00;96.50;;;;;;25323822;23;20006;-59
2023/08/16 13:40:02;;;;;;;5.97;5.45;;;29.10;95.70;;;;;;25329326;23;20014;-59
2023/08/16 13:50:04;;;;;;;6.20;5.70;;;29.20;95.60;;;;;;25331379;23;20441;-60
2023/08/16 14:00:07;;;;;;;6.53;6.03;;;29.30;95.50;;;;;;25327763;23;20006;-59
2023/08/16 14:10:14;;;;;;;6.68;5.97;;;29.00;95.20;;;;;;25368058;23;20037;-48
2023/08/16 14:20:15;;;;;;;6.78;5.72;;;28.90;95.50;;;;;;25327469;23;20005;-59
2023/08/16 14:30:17;;;;;;;7.30;6.60;;;29.00;94.80;;;;;;25327203;23;20005;-59
2023/08/16 14:40:19;;;;;;;8.35;7.55;;;29.10;95.10;;;;;;25326975;23;20014;-59
2023/08/16 14:50:22;;;;;;;7.43;6.75;;;28.90;94.00;;;;;;25326323;23;20006;-59
2023/08/16 15:00:24;;;;;;;8.50;7.80;;;28.70;94.50;;;;;;25273332;23;20020;-57
2023/08/16 15:10:26;;;;;;;8.90;8.20;;;29.00;94.40;;;;;;25325081;23;20018;-60
2023/08/16 15:20:28;;;;;;;8.70;8.00;;;28.50;95.00;;;;;;25326634;23;20006;-61
2023/08/16 15:30:30;;;;;;;8.20;7.47;;;28.00;93.60;;;;;;25325750;23;20018;-59
2023/08/16 15:40:35;;;;;;;8.52;7.82;;;27.20;96.50;;;;;;25326139;23;20334;-63
2023/08/16 15:50:37;;;;;;;8.70;8.00;;;26.10;97.20;;;;;;25319500;23;20069;-61
2023/08/16 16:00:39;;;;;;;8.95;8.15;;;24.80;98.20;;;;;;25319495;23;20006;-62
2023/08/16 16:10:41;;;;;;;9.60;8.68;;;23.60;99.90;;;;;;25318609;23;20006;-61
2023/08/16 16:20:43;;;;;;;9.05;8.15;;;23.00;99.90;;;;;;25295427;23;20097;-62
2023/08/16 16:30:46;;;;;;;9.80;8.57;;;23.30;99.90;;;;;;25300434;23;20330;-61
2023/08/16 16:40:48;;;;;;;9.38;8.57;;;23.70;99.90;;;;;;25325824;23;20033;-53
2023/08/16 16:50:50;;;;;;;9.20;8.40;;;24.00;99.90;;;;;;25328603;23;20418;-61
2023/08/16 17:00:52;;;;;;;12.15;9.45;;;24.00;99.90;;;;;;25324875;23;20009;-61
2023/08/16 17:10:56;;;;;;;10.73;9.27;;;23.60;99.90;;;;;;25324304;23;20002;-61
2023/08/16 17:20:59;;;;;;;10.50;9.50;;;23.10;99.90;;;;;;25324181;23;20010;-61
2023/08/16 17:31:01;;;;;;;11.43;10.32;;;22.80;99.90;;;;;;25324510;23;20437;-60
2023/08/16 17:41:03;;;;;;;12.15;10.95;;;22.20;99.90;;;;;;25324552;23;20434;-60
2023/08/16 17:51:05;;;;;;;13.95;12.23;;;21.40;99.90;;;;;;25327023;23;20342;-60
2023/08/16 18:01:07;;;;;;;16.35;14.68;;;20.50;99.90;;;;;;25297987;23;20014;-59
2023/08/16 18:11:09;;;;;;;17.95;16.05;;;19.60;99.90;;;;;;25322681;23;20006;-59
2023/08/16 18:21:11;;;;;;;19.77;17.33;;;19.00;99.90;;;;;;25327737;23;20378;-58
2023/08/16 18:31:13;;;;;;;18.25;16.35;;;18.60;99.90;;;;;;25079329;23;20011;-59
2023/08/16 18:41:15;;;;;;;16.63;14.93;;;18.50;99.90;;;;;;25077598;23;20063;-59
2023/08/16 18:51:18;;;;;;;19.60;17.70;;;18.60;99.90;;;;;;25077491;23;20055;-59
2023/08/16 19:01:23;;;;;;;17.67;15.88;;;18.80;99.90;;;;;;25278106;23;20013;-59
2023/08/16 19:11:25;;;;;;;19.40;17.35;;;18.70;99.90;;;;;;25329775;23;20006;-53
2023/08/16 19:21:28;;;;;;;20.85;18.60;;;18.60;99.90;;;;;;25329086;23;20002;-59
2023/08/16 19:31:33;;;;;;;20.02;17.98;;;18.20;99.90;;;;;;25328403;23;20024;-59
2023/08/16 19:41:42;;;;;;;21.17;18.83;;;17.80;99.90;;;;;;25344024;23;20014;-51
2023/08/16 19:51:44;;;;;;;20.65;17.60;;;17.50;99.90;;;;;;25338872;23;20006;-71
2023/08/16 20:01:47;;;;;;;20.10;18.05;;;17.40;99.90;;;;;;25327070;23;20033;-61
2023/08/16 20:11:53;;;;;;;17.85;15.98;;;17.30;99.90;;;;;;25318825;23;20430;-60
2023/08/16 20:21:56;;;;;;;18.13;16.33;;;17.30;99.90;;;;;;25323531;23;20006;-60
2023/08/16 20:31:59;;;;;;;17.55;15.75;;;17.40;99.90;;;;;;25299828;23;20010;-61
2023/08/16 20:42:02;;;;;;;17.08;15.40;;;17.40;99.90;;;;;;25324527;23;20069;-60
2023/08/16 20:52:05;;;;;;;17.77;15.95;;;17.30;99.90;;;;;;25299793;23;20067;-62
2023/08/16 21:02:08;;;;;;;18.42;16.63;;;17.10;99.90;;;;;;25325146;23;20016;-62
2023/08/16 21:12:10;;;;;;;18.95;16.67;;;16.90;99.90;;;;;;25323126;23;20010;-59
2023/08/16 21:22:14;;;;;;;21.35;18.95;;;16.80;99.90;;;;;;25324217;23;20065;-59
2023/08/16 21:32:16;;;;;;;23.30;20.90;;;16.60;99.90;;;;;;25325786;23;20437;-59
2023/08/16 21:42:18;;;;;;;25.13;21.55;;;16.40;99.90;;;;;;25321936;23;20018;-61
2023/08/16 21:52:20;;;;;;;27.33;24.42;;;16.40;99.90;;;;;;25326094;23;20014;-60
2023/08/16 22:02:22;;;;;;;24.17;21.50;;;16.40;99.90;;;;;;25304538;23;20045;-58
2023/08/16 22:12:24;;;;;;;24.48;21.98;;;16.50;99.90;;;;;;25331677;23;20013;-52
2023/08/16 22:22:26;;;;;;;24.90;22.30;;;16.70;99.90;;;;;;25332360;23;20006;-58
2023/08/16 22:32:28;;;;;;;24.45;21.73;;;16.80;99.90;;;;;;25330587;23;20005;-49
2023/08/16 22:42:30;;;;;;;25.52;22.73;;;17.00;99.90;;;;;;25330958;23;20342;-57
2023/08/16 22:52:32;;;;;;;27.45;24.10;;;17.10;99.90;;;;;;25329680;23;20002;-53
2023/08/16 23:02:34;;;;;;;25.02;22.33;;;17.20;99.90;;;;;;25330580;23;20014;-58
2023/08/16 23:12:36;;;;;;;23.00;20.65;;;17.20;99.90;;;;;;25329182;23;20014;-58
2023/08/16 23:22:40;;;;;;;23.50;21.10;;;17.20;99.90;;;;;;25330189;23;20373;-57
2023/08/16 23:32:42;;;;;;;23.65;21.15;;;17.30;99.90;;;;;;25328285;23;20005;-58
2023/08/16 23:42:44;;;;;;;23.83;21.35;;;17.30;99.90;;;;;;25327597;23;20006;-57
2023/08/16 23:52:46;;;;;;;26.40;22.95;;;17.10;99.90;;;;;;25327682;23;20334;-58
